createdAt,value
2019-05-22T00:01:50.059Z,18.10
2019-05-22T00:04:35.571Z,18.10
2019-05-22T00:07:09.671Z,18.10
2019-05-22T00:09:45.557Z,18.10
2019-05-22T00:12:24.624Z,18.10
2019-05-22T00:14:58.436Z,18.10
2019-05-22T00:17:34.513Z,18.10
2019-05-22T00:20:09.260Z,18.10
2019-05-22T00:22:46.351Z,18.10
2019-05-22T00:25:23.906Z,18.10
2019-05-22T00:27:59.850Z,18.10
2019-05-22T00:30:36.694Z,18.10
2019-05-22T00:33:16.262Z,18.10
2019-05-22T00:35:50.270Z,18.10
2019-05-22T00:38:25.758Z,18.00
2019-05-22T00:41:06.250Z,18.10
2019-05-22T00:43:44.911Z,18.00
2019-05-22T00:46:20.862Z,18.00
2019-05-22T00:48:54.531Z,18.00
2019-05-22T00:52:06.327Z,18.00
2019-05-22T00:55:20.121Z,17.90
2019-05-22T00:58:18.089Z,17.90
2019-05-22T01:01:04.088Z,17.90
2019-05-22T01:03:43.289Z,17.90
2019-05-22T01:06:18.780Z,17.90
2019-05-22T01:08:53.115Z,17.80
2019-05-22T01:11:31.687Z,17.80
2019-05-22T01:14:08.032Z,17.80
2019-05-22T01:16:43.101Z,17.70
2019-05-22T01:19:16.577Z,17.70
2019-05-22T01:21:50.702Z,17.70
2019-05-22T01:24:25.499Z,17.70
2019-05-22T01:27:00.320Z,17.70
2019-05-22T01:29:34.314Z,17.70
2019-05-22T01:32:28.020Z,17.70
2019-05-22T01:35:02.481Z,17.60
2019-05-22T01:37:39.779Z,17.50
2019-05-22T01:40:22.851Z,17.50
2019-05-22T01:42:59.567Z,17.50
2019-05-22T01:45:34.213Z,17.40
2019-05-22T01:48:12.769Z,17.40
2019-05-22T01:51:01.064Z,17.40
2019-05-22T01:53:41.454Z,17.40
2019-05-22T01:56:17.271Z,17.30
2019-05-22T01:58:52.635Z,17.30
2019-05-22T02:01:27.952Z,17.30
2019-05-22T02:04:04.606Z,17.30
2019-05-22T02:06:40.055Z,17.30
2019-05-22T02:09:31.552Z,17.30
2019-05-22T02:12:26.173Z,17.20
2019-05-22T02:14:59.307Z,17.10
2019-05-22T02:17:37.583Z,17.20
2019-05-22T02:20:11.647Z,17.20
2019-05-22T02:22:47.004Z,17.10
2019-05-22T02:25:22.160Z,17.10
2019-05-22T02:27:57.079Z,17.10
2019-05-22T02:30:33.590Z,17.10
2019-05-22T02:33:08.756Z,17.00
2019-05-22T02:35:42.343Z,17.00
2019-05-22T02:38:15.818Z,17.00
2019-05-22T02:40:50.842Z,17.00
2019-05-22T02:43:26.709Z,17.10
2019-05-22T02:46:00.606Z,17.10
2019-05-22T02:48:34.938Z,17.10
2019-05-22T02:51:08.662Z,17.10
2019-05-22T02:53:47.737Z,17.10
2019-05-22T02:56:23.212Z,17.10
2019-05-22T02:58:58.232Z,17.10
2019-05-22T03:01:31.847Z,17.10
2019-05-22T03:04:08.144Z,17.20
2019-05-22T03:06:42.033Z,17.20
2019-05-22T03:09:28.950Z,17.20
2019-05-22T03:12:12.432Z,17.10
2019-05-22T03:14:47.037Z,17.20
2019-05-22T03:17:28.923Z,17.20
2019-05-22T03:20:07.410Z,17.10
2019-05-22T03:23:35.158Z,17.10
2019-05-22T03:26:10.808Z,17.00
2019-05-22T03:28:46.174Z,17.00
2019-05-22T03:31:19.936Z,17.00
2019-05-22T03:33:54.415Z,17.00
2019-05-22T03:36:27.936Z,17.00
2019-05-22T03:39:01.841Z,16.90
2019-05-22T03:41:36.056Z,17.00
2019-05-22T03:44:11.945Z,17.00
2019-05-22T03:46:48.546Z,17.00
2019-05-22T03:49:29.637Z,16.90
2019-05-22T03:51:56.566Z,16.90
2019-05-22T03:54:33.069Z,17.00
2019-05-22T03:57:07.192Z,17.00
2019-05-22T03:59:43.181Z,17.10
2019-05-22T04:02:17.590Z,17.10
2019-05-22T04:04:51.804Z,17.10
2019-05-22T04:07:26.954Z,17.10
2019-05-22T04:09:59.655Z,17.10
2019-05-22T04:12:33.576Z,17.10
2019-05-22T04:15:09.205Z,17.10
2019-05-22T04:17:44.661Z,17.10
2019-05-22T04:20:20.150Z,17.10
2019-05-22T04:23:00.296Z,17.00
2019-05-22T04:25:34.261Z,17.00
2019-05-22T04:28:08.399Z,17.00
2019-05-22T04:30:42.056Z,17.00
2019-05-22T04:33:18.553Z,17.10
2019-05-22T04:35:52.821Z,17.10
2019-05-22T04:38:27.552Z,17.20
2019-05-22T04:41:01.741Z,17.20
2019-05-22T04:43:37.960Z,17.20
2019-05-22T04:46:11.788Z,17.20
2019-05-22T04:48:47.431Z,17.20
2019-05-22T04:51:31.379Z,17.30
2019-05-22T04:54:05.314Z,17.30
2019-05-22T04:56:39.290Z,17.30
2019-05-22T04:59:28.662Z,17.30
2019-05-22T05:02:14.279Z,17.40
2019-05-22T05:04:48.246Z,17.50
2019-05-22T05:07:24.552Z,17.50
2019-05-22T05:10:03.065Z,17.60
2019-05-22T05:12:41.829Z,17.60
2019-05-22T05:15:18.839Z,17.70
2019-05-22T05:17:56.191Z,17.70
2019-05-22T05:20:30.247Z,17.80
2019-05-22T05:23:04.373Z,17.80
2019-05-22T05:25:38.333Z,17.80
2019-05-22T05:28:13.261Z,17.90
2019-05-22T05:30:51.120Z,17.90
2019-05-22T05:33:25.628Z,17.90
2019-05-22T05:36:00.340Z,18.00
2019-05-22T05:38:39.364Z,18.00
2019-05-22T05:41:13.259Z,18.10
2019-05-22T05:43:47.901Z,18.20
2019-05-22T05:46:22.683Z,18.30
2019-05-22T05:49:03.106Z,18.30
2019-05-22T05:51:43.519Z,18.30
2019-05-22T05:54:20.837Z,18.50
2019-05-22T05:56:59.092Z,18.50
2019-05-22T05:59:33.747Z,18.60
2019-05-22T06:02:10.091Z,18.60
2019-05-22T06:04:46.542Z,18.70
2019-05-22T06:07:22.206Z,18.80
2019-05-22T06:10:36.663Z,18.90
2019-05-22T06:13:34.599Z,18.90
2019-05-22T06:16:45.245Z,19.00
2019-05-22T06:19:21.039Z,19.10
2019-05-22T06:21:55.195Z,19.20
2019-05-22T06:25:04.749Z,19.10
2019-05-22T06:27:56.583Z,19.10
2019-05-22T06:30:48.398Z,19.10
2019-05-22T06:33:48.042Z,19.20
2019-05-22T06:36:23.498Z,19.20
2019-05-22T06:39:12.393Z,19.20
2019-05-22T06:41:47.803Z,19.20
2019-05-22T06:44:33.094Z,19.30
2019-05-22T06:47:11.984Z,19.40
2019-05-22T06:50:10.312Z,19.40
2019-05-22T06:52:44.416Z,19.50
2019-05-22T06:55:18.533Z,19.60
2019-05-22T06:57:52.867Z,19.60
2019-05-22T07:00:28.017Z,19.60
2019-05-22T07:03:02.648Z,19.60
2019-05-22T07:05:37.987Z,19.60
2019-05-22T07:08:12.511Z,19.70
2019-05-22T07:10:46.949Z,19.70
2019-05-22T07:13:21.885Z,19.70
2019-05-22T07:15:56.482Z,19.70
2019-05-22T07:18:32.509Z,19.80
2019-05-22T07:21:08.605Z,20.00
2019-05-22T07:23:43.416Z,20.20
2019-05-22T07:26:54.046Z,20.20
2019-05-22T07:29:28.379Z,20.20
2019-05-22T07:32:03.613Z,20.20
2019-05-22T07:34:38.640Z,20.20
2019-05-22T07:37:24.098Z,20.30
2019-05-22T07:40:00.009Z,20.40
2019-05-22T07:42:36.934Z,20.50
2019-05-22T07:45:37.750Z,20.60
2019-05-22T07:52:01.985Z,20.50
2019-05-22T07:54:35.915Z,20.50
2019-05-22T07:57:10.465Z,20.50
2019-05-22T07:59:49.013Z,20.60
2019-05-22T08:02:25.260Z,20.70
2019-05-22T08:05:00.838Z,20.80
2019-05-22T08:07:36.701Z,20.80
2019-05-22T08:10:29.034Z,20.90
2019-05-22T08:13:18.882Z,21.00
2019-05-22T08:16:16.326Z,20.80
2019-05-22T08:19:03.882Z,20.80
2019-05-22T08:22:14.060Z,20.90
2019-05-22T08:25:03.222Z,21.00
2019-05-22T08:27:39.611Z,21.00
2019-05-22T08:30:53.398Z,21.10
2019-05-22T08:33:32.966Z,21.00
2019-05-22T08:36:24.230Z,21.00
2019-05-22T08:39:14.896Z,21.20
2019-05-22T08:42:08.084Z,21.20
2019-05-22T08:44:49.446Z,21.20
2019-05-22T08:51:26.336Z,21.40
2019-05-22T08:57:53.059Z,21.40
2019-05-22T09:04:07.966Z,21.50
2019-05-22T09:11:27.833Z,21.60
2019-05-22T09:14:01.607Z,21.60
2019-05-22T09:16:48.693Z,21.70
2019-05-22T09:20:11.683Z,21.80
2019-05-22T09:22:55.053Z,21.80
2019-05-22T09:33:25.692Z,22.00
2019-05-22T09:36:41.055Z,22.10
2019-05-22T09:39:30.032Z,22.10
2019-05-22T09:42:19.284Z,22.30
2019-05-22T09:45:03.985Z,22.60
2019-05-22T09:47:49.476Z,22.90
2019-05-22T09:50:30.147Z,23.10
2019-05-22T09:53:03.752Z,23.20
2019-05-22T09:55:59.972Z,23.30
2019-05-22T09:58:35.583Z,23.20
2019-05-22T10:08:56.104Z,22.40
2019-05-22T10:11:31.718Z,22.40
2019-05-22T10:14:10.654Z,22.40
2019-05-22T10:17:57.505Z,22.70
2019-05-22T10:24:24.528Z,23.00
2019-05-22T10:27:21.430Z,23.10
2019-05-22T10:29:56.389Z,22.70
2019-05-22T10:32:32.601Z,22.60
2019-05-22T10:35:32.846Z,22.60
2019-05-22T10:42:20.610Z,22.50
2019-05-22T10:45:08.723Z,22.50
2019-05-22T10:48:09.046Z,22.50
2019-05-22T10:51:27.261Z,22.80
2019-05-22T10:54:19.907Z,23.10
2019-05-22T11:00:27.038Z,23.50
2019-05-22T11:06:49.315Z,23.60
2019-05-22T11:09:28.778Z,23.30
2019-05-22T11:12:29.994Z,23.30
2019-05-22T11:15:10.640Z,23.20
2019-05-22T11:21:48.988Z,23.60
2019-05-22T11:24:39.931Z,23.80
2019-05-22T11:27:15.039Z,24.20
2019-05-22T11:30:10.262Z,24.30
2019-05-22T11:32:45.129Z,24.30
2019-05-22T11:35:25.725Z,24.30
2019-05-22T11:38:06.779Z,24.30
2019-05-22T11:40:45.405Z,24.20
2019-05-22T11:43:36.828Z,23.80
2019-05-22T11:46:42.526Z,23.50
2019-05-22T11:49:34.961Z,23.70
2019-05-22T11:52:15.947Z,23.70
2019-05-22T11:54:48.526Z,23.70
2019-05-22T11:57:24.869Z,23.70
2019-05-22T11:59:59.145Z,23.90
2019-05-22T12:02:36.391Z,24.00
2019-05-22T12:05:10.946Z,24.00
2019-05-22T12:08:00.911Z,24.00
2019-05-22T12:10:36.179Z,24.00
2019-05-22T12:13:11.721Z,23.90
2019-05-22T12:15:45.950Z,23.80
2019-05-22T12:18:22.087Z,23.70
2019-05-22T12:21:39.896Z,23.60
2019-05-22T12:24:26.985Z,23.30
2019-05-22T12:26:59.435Z,23.30
2019-05-22T12:29:51.435Z,23.20
2019-05-22T12:32:25.498Z,23.30
2019-05-22T12:35:00.250Z,23.20
2019-05-22T12:37:35.308Z,23.10
2019-05-22T12:40:12.657Z,23.30
2019-05-22T12:42:49.694Z,23.40
2019-05-22T12:46:03.875Z,23.70
2019-05-22T12:48:41.593Z,23.60
2019-05-22T12:51:19.155Z,23.60
2019-05-22T12:54:03.098Z,23.60
2019-05-22T12:56:40.248Z,23.60
2019-05-22T12:59:14.920Z,23.80
2019-05-22T13:02:11.038Z,23.60
2019-05-22T13:04:44.542Z,23.50
2019-05-22T13:07:18.703Z,23.50
2019-05-22T13:10:05.247Z,23.50
2019-05-22T13:12:39.599Z,23.40
2019-05-22T13:15:13.194Z,23.40
2019-05-22T13:17:55.359Z,23.40
2019-05-22T13:20:42.689Z,23.50
2019-05-22T13:23:34.805Z,23.80
2019-05-22T13:26:07.906Z,24.10
2019-05-22T13:28:45.849Z,24.10
2019-05-22T13:31:28.596Z,24.20
2019-05-22T13:34:06.982Z,24.30
2019-05-22T13:36:41.353Z,23.90
2019-05-22T13:39:24.747Z,23.80
2019-05-22T13:41:58.780Z,23.60
2019-05-22T13:44:31.241Z,23.50
2019-05-22T13:47:04.566Z,23.40
2019-05-22T13:49:40.744Z,23.00
2019-05-22T13:52:20.530Z,23.00
2019-05-22T13:55:12.688Z,23.00
2019-05-22T13:58:04.267Z,23.00
2019-05-22T14:01:20.549Z,23.00
2019-05-22T14:04:22.095Z,23.30
2019-05-22T14:07:15.569Z,23.40
2019-05-22T14:09:51.109Z,23.50
2019-05-22T14:12:26.318Z,23.40
2019-05-22T14:15:00.703Z,23.70
2019-05-22T14:17:35.131Z,23.50
2019-05-22T14:20:10.276Z,23.70
2019-05-22T14:23:12.893Z,23.80
2019-05-22T14:25:49.807Z,23.90
2019-05-22T14:32:21.740Z,23.80
2019-05-22T14:34:56.458Z,24.00
2019-05-22T14:37:37.197Z,23.80
2019-05-22T14:40:12.777Z,23.70
2019-05-22T14:42:47.643Z,23.50
2019-05-22T14:45:22.974Z,23.30
2019-05-22T14:47:57.053Z,23.50
2019-05-22T14:50:32.946Z,23.60
2019-05-22T14:53:07.978Z,23.50
2019-05-22T14:55:50.558Z,23.20
2019-05-22T14:58:26.821Z,23.40
2019-05-22T15:01:35.905Z,23.50
2019-05-22T15:04:10.755Z,23.60
2019-05-22T15:06:45.745Z,23.90
2019-05-22T15:09:19.873Z,24.10
2019-05-22T15:12:12.114Z,24.00
2019-05-22T15:14:47.927Z,24.00
2019-05-22T15:24:02.119Z,23.50
2019-05-22T15:26:37.859Z,23.60
2019-05-22T15:29:11.780Z,23.70
2019-05-22T15:35:32.076Z,23.50
2019-05-22T15:38:37.173Z,23.50
2019-05-22T15:41:58.092Z,23.60
2019-05-22T15:45:02.371Z,23.80
2019-05-22T15:47:53.175Z,23.80
2019-05-22T16:01:53.682Z,23.60
2019-05-22T16:05:24.090Z,23.70
2019-05-22T16:12:33.916Z,23.80
2019-05-22T16:15:24.580Z,23.70
2019-05-22T16:18:11.242Z,23.80
2019-05-22T16:20:40.223Z,24.10
2019-05-22T16:23:26.177Z,23.90
2019-05-22T16:26:00.453Z,24.00
2019-05-22T16:28:47.043Z,23.90
2019-05-22T16:31:42.653Z,24.10
2019-05-22T16:34:30.518Z,24.40
2019-05-22T16:37:52.472Z,24.70
2019-05-22T16:40:30.302Z,24.90
2019-05-22T16:43:20.508Z,25.00
2019-05-22T16:46:42.287Z,25.00
2019-05-22T16:49:41.711Z,25.20
2019-05-22T16:52:40.647Z,25.40
2019-05-22T16:55:19.891Z,25.50
2019-05-22T16:57:59.987Z,25.20
2019-05-22T17:00:33.489Z,24.90
2019-05-22T17:03:11.429Z,24.50
2019-05-22T17:05:53.046Z,24.10
2019-05-22T17:08:32.296Z,23.90
2019-05-22T17:11:10.488Z,23.70
2019-05-22T17:13:45.852Z,23.20
2019-05-22T17:16:22.431Z,22.90
2019-05-22T17:18:57.722Z,22.80
2019-05-22T17:21:39.929Z,22.50
2019-05-22T17:24:20.971Z,22.50
2019-05-22T17:27:20.271Z,22.50
2019-05-22T17:30:06.998Z,22.40
2019-05-22T17:32:42.676Z,22.40
2019-05-22T17:35:18.904Z,22.20
2019-05-22T17:37:55.195Z,22.20
2019-05-22T17:40:29.555Z,22.20
2019-05-22T17:43:15.814Z,22.20
2019-05-22T17:45:50.889Z,22.00
2019-05-22T17:48:24.433Z,22.00
2019-05-22T17:50:58.777Z,22.10
2019-05-22T17:53:40.764Z,22.00
2019-05-22T17:56:19.384Z,21.80
2019-05-22T17:58:58.675Z,21.70
2019-05-22T18:01:40.476Z,21.70
2019-05-22T18:04:16.698Z,21.70
2019-05-22T18:06:51.361Z,21.70
2019-05-22T18:09:25.861Z,21.70
2019-05-22T18:12:09.190Z,21.60
2019-05-22T18:14:42.970Z,21.60
2019-05-22T18:17:16.925Z,21.50
2019-05-22T18:19:51.315Z,21.50
2019-05-22T18:22:25.239Z,21.50
2019-05-22T18:24:59.451Z,21.40
2019-05-22T18:27:33.691Z,21.30
2019-05-22T18:30:14.059Z,21.30
2019-05-22T18:32:47.895Z,21.30
2019-05-22T18:35:45.971Z,21.20
2019-05-22T18:38:25.935Z,21.20
2019-05-22T18:40:58.039Z,21.20
2019-05-22T18:44:17.056Z,21.10
2019-05-22T18:47:17.785Z,21.00
2019-05-22T18:50:29.024Z,20.90
2019-05-22T18:53:03.979Z,20.80
2019-05-22T18:55:46.811Z,20.70
2019-05-22T18:58:21.297Z,20.60
2019-05-22T19:00:53.949Z,20.50
2019-05-22T19:03:28.236Z,20.50
2019-05-22T19:06:29.781Z,20.50
2019-05-22T19:08:55.117Z,20.40
2019-05-22T19:11:31.010Z,20.40
2019-05-22T19:15:09.192Z,20.30
2019-05-22T19:17:54.832Z,20.30
2019-05-22T19:20:34.122Z,20.40
2019-05-22T19:23:11.712Z,20.50
2019-05-22T19:26:07.189Z,20.40
2019-05-22T19:28:44.333Z,20.20
2019-05-22T19:31:53.301Z,20.10
2019-05-22T19:34:28.603Z,20.10
2019-05-22T19:37:03.006Z,20.10
2019-05-22T19:39:37.986Z,20.00
2019-05-22T19:42:12.218Z,19.90
2019-05-22T19:44:46.489Z,19.90
2019-05-22T19:47:22.066Z,19.80
2019-05-22T19:49:56.145Z,19.70
2019-05-22T19:52:40.973Z,19.70
2019-05-22T19:55:07.166Z,19.70
2019-05-22T19:57:42.041Z,19.70
2019-05-22T20:00:17.020Z,19.60
2019-05-22T20:02:51.193Z,19.70
2019-05-22T20:05:25.891Z,19.80
2019-05-22T20:08:00.220Z,19.80
2019-05-22T20:10:34.477Z,19.70
2019-05-22T20:13:10.022Z,19.60
2019-05-22T20:15:44.259Z,19.40
2019-05-22T20:18:18.544Z,19.30
2019-05-22T20:20:51.024Z,19.20
2019-05-22T20:23:35.214Z,19.10
2019-05-22T20:26:02.091Z,19.10
2019-05-22T20:28:37.061Z,19.10
2019-05-22T20:31:10.807Z,19.10
2019-05-22T20:34:30.322Z,19.00
2019-05-22T20:40:53.618Z,19.00
2019-05-22T20:43:27.938Z,19.00
2019-05-22T20:46:02.244Z,19.00
2019-05-22T20:48:38.697Z,19.00
2019-05-22T20:51:14.910Z,19.00
2019-05-22T20:53:54.025Z,18.90
2019-05-22T20:56:28.348Z,18.90
2019-05-22T20:59:02.729Z,18.90
2019-05-22T21:05:26.164Z,18.80
2019-05-22T21:08:05.527Z,18.70
2019-05-22T21:10:41.198Z,18.80
2019-05-22T21:13:16.995Z,18.70
2019-05-22T21:15:54.345Z,18.60
2019-05-22T21:18:53.588Z,18.70
2019-05-22T21:21:31.971Z,18.60
2019-05-22T21:24:11.609Z,18.60
2019-05-22T21:26:44.277Z,18.60
2019-05-22T21:29:33.809Z,18.60
2019-05-22T21:32:10.488Z,18.40
2019-05-22T21:34:43.950Z,18.40
2019-05-22T21:37:36.894Z,18.40
2019-05-22T21:40:13.719Z,18.40
2019-05-22T21:42:55.957Z,18.30
2019-05-22T21:45:31.572Z,18.20
2019-05-22T21:48:07.006Z,18.20
2019-05-22T21:50:47.564Z,18.20
2019-05-22T21:53:26.917Z,18.20
2019-05-22T21:56:04.623Z,18.20
2019-05-22T21:58:37.516Z,18.00
2019-05-22T22:01:25.522Z,18.00
2019-05-22T22:07:09.242Z,17.90
2019-05-22T22:09:43.125Z,17.90
2019-05-22T22:12:19.487Z,17.90
2019-05-22T22:14:53.514Z,17.90
2019-05-22T22:17:34.692Z,17.90
2019-05-22T22:20:09.297Z,17.80
2019-05-22T22:22:42.466Z,17.80
2019-05-22T22:25:18.423Z,17.70
2019-05-22T22:27:58.490Z,17.60
2019-05-22T22:30:51.975Z,17.60
2019-05-22T22:33:28.769Z,17.60
2019-05-22T22:36:03.700Z,17.50
2019-05-22T22:38:38.490Z,17.50
2019-05-22T22:41:18.976Z,17.50
2019-05-22T22:43:53.006Z,17.50
2019-05-22T22:46:47.227Z,17.50
2019-05-22T22:49:28.229Z,17.40
2019-05-22T22:52:01.557Z,17.40
2019-05-22T22:54:38.054Z,17.20
2019-05-22T22:57:11.640Z,17.20
2019-05-22T22:59:50.969Z,17.20
2019-05-22T23:02:28.560Z,17.20
2019-05-22T23:05:02.493Z,17.20
2019-05-22T23:07:38.464Z,17.10
2019-05-22T23:10:15.879Z,17.10
2019-05-22T23:12:53.275Z,17.10
2019-05-22T23:15:30.525Z,17.10
2019-05-22T23:18:03.651Z,17.10
2019-05-22T23:20:34.605Z,17.10
2019-05-22T23:23:07.479Z,17.10
2019-05-22T23:25:43.144Z,17.10
2019-05-22T23:28:15.904Z,17.00
2019-05-22T23:30:49.241Z,17.00
2019-05-22T23:33:22.756Z,17.00
2019-05-22T23:35:55.896Z,16.90
2019-05-22T23:38:30.320Z,16.80
2019-05-22T23:41:04.970Z,16.80
2019-05-22T23:43:38.390Z,16.80
2019-05-22T23:46:13.757Z,16.80
2019-05-22T23:48:49.292Z,16.90
2019-05-22T23:51:25.643Z,16.80
2019-05-22T23:54:00.725Z,16.80
2019-05-22T23:56:36.887Z,16.80
2019-05-22T23:59:10.981Z,16.70
